Home   Weather   Finland   Helsinki   Past weeks
Flag for Finland

Past Weather in Helsinki, Finland — Yesterday and Last 2 Weeks

Currently: 63 °F. Passing clouds. (Weather station: Helsinki-Vantaa, Finland). See more current weather

Past Weather in Helsinki — Graph

°F

Helsinki Temperature Yesterday

Maximum temperature yesterday: 77 °F (at 12:20 pm)
Minimum temperature yesterday: 52 °F (at 5:50 am)
Average temperature yesterday: 65 °F

High & Low Weather Summary for the Past Weeks

 TemperatureHumidityPressure
High77 °F (May 11, 4:50 pm)100% (Apr 30, 3:20 am)30.07 "Hg (Apr 30, 3:20 am)
Low25 °F (Apr 30, 3:20 am)22% (May 12, 2:50 pm)29.33 "Hg (May 6, 4:50 pm)
Average47 °F62%29.79 "Hg
* Reported Apr 29 1:20 pm — May 14 1:50 pm, Helsinki. Weather by CustomWeather, © 2021

Note: Actual official high and low records may vary slightly from our data, if they occured in-between our weather recording intervals... More about our weather records

Helsinki Weather History for the Previous 24 Hours

Scroll right to see more
 ConditionsComfort  
Time TempWeatherWind HumidityBarometerVisibility
1:50 pm
Fri, May 14
64 °FPassing clouds.15 mph43%29.77 "HgN/A
1:20 pm63 °FPassing clouds.13 mph49%29.77 "HgN/A
12:50 pm63 °FPassing clouds.12 mph49%29.77 "HgN/A
12:20 pm59 °FPassing clouds.13 mph59%29.77 "HgN/A
11:50 am61 °FSunny.10 mph55%29.77 "Hg10 mi
11:20 am61 °FSunny.13 mph55%29.77 "Hg10 mi
10:50 am61 °FSunny.8 mph55%29.77 "Hg10 mi
10:20 am59 °FPassing clouds.5 mph63%29.77 "HgN/A
9:50 am59 °FSunny.8 mph63%29.77 "Hg10 mi
9:20 am59 °FPassing clouds.3 mph63%29.77 "HgN/A
8:50 am57 °FPassing clouds.6 mph63%29.77 "HgN/A
8:20 am55 °FSunny.8 mph67%29.77 "Hg10 mi
7:50 am55 °FPassing clouds.5 mph67%29.77 "HgN/A
7:20 am54 °FSunny.6 mph72%29.77 "Hg10 mi
6:50 am52 °FSunny.6 mph72%29.77 "Hg10 mi
6:20 am48 °FSunny.6 mph82%29.77 "Hg10 mi
5:50 am48 °FSunny.6 mph82%29.77 "Hg10 mi
5:20 am46 °FSunny.5 mph87%29.77 "Hg10 mi
4:50 am45 °FPassing clouds.6 mph93%29.77 "HgN/A
4:20 am43 °FClear.3 mph93%29.77 "Hg10 mi
3:50 am45 °FClear.2 mph93%29.77 "Hg10 mi
3:20 am43 °FClear.3 mph93%29.77 "Hg10 mi
2:50 am45 °FClear.3 mph93%29.77 "Hg10 mi
2:20 am46 °FClear.3 mph87%29.77 "Hg10 mi
1:50 am46 °FClear.5 mph87%29.77 "Hg10 mi
1:20 am48 °FClear.3 mph82%29.80 "Hg10 mi
12:50 am48 °FClear.3 mph87%29.80 "Hg10 mi
12:20 am50 °FClear.3 mph82%29.80 "Hg10 mi
11:50 pm
Thu, May 13
54 °FClear.2 mph72%29.80 "Hg10 mi
11:20 pm57 °FClear.6 mph59%29.80 "Hg10 mi
10:50 pm59 °FClear.7 mph59%29.80 "Hg10 mi
10:20 pm61 °FClear.7 mph55%29.80 "Hg10 mi
9:50 pm63 °FClear.5 mph52%29.80 "Hg10 mi
9:20 pm64 °FSunny.7 mph52%29.80 "Hg10 mi
8:50 pm66 °FSunny.10 mph49%29.80 "Hg10 mi
8:20 pm68 °FPassing clouds.9 mph46%29.80 "HgN/A
7:50 pm68 °FSunny.10 mph49%29.80 "Hg10 mi
6:50 pm70 °FSunny.12 mph46%29.80 "Hg10 mi
6:20 pm72 °FSunny.14 mph44%29.80 "Hg10 mi
5:50 pm72 °FSunny.15 mph44%29.80 "Hg10 mi
5:20 pm72 °FSunny.16 mph41%29.80 "Hg10 mi
4:50 pm73 °FSunny.16 mph38%29.80 "Hg10 mi
4:20 pm75 °FPassing clouds.13 mph36%29.80 "HgN/A
3:50 pm75 °FPassing clouds.10 mph36%29.83 "HgN/A
3:20 pm75 °FSunny.13 mph36%29.83 "Hg10 mi
2:50 pm75 °FPassing clouds.13 mph36%29.83 "HgN/A
2:20 pm75 °FPassing clouds.13 mph36%29.83 "HgN/A
Weather by CustomWeather, © 2021

See weather overview